Time;durP1;ratioP1;P1;durP2;ratioP2;P2;SDS_P1;SDS_P2;PMS_P1;PMS_P2;Temp;Humidity;BMP_temperature;BMP_pressure;BME280_temperature;BME280_humidity;BME280_pressure;Samples;Min_cycle;Max_cycle;Signal;HPM_P1;HPM_P2
2022/09/18 00:02:20;;;;;;;0.63;0.50;;;10.20;99.90;;;;;;6081994;23;20486;-72
2022/09/18 00:04:47;;;;;;;1.60;0.75;;;10.20;99.90;;;;;;6082655;23;20034;-72
2022/09/18 00:07:13;;;;;;;1.30;0.75;;;10.20;99.90;;;;;;6084908;23;20028;-72
2022/09/18 00:09:40;;;;;;;1.15;0.63;;;10.20;99.90;;;;;;6083243;23;20034;-72
2022/09/18 00:12:07;;;;;;;1.50;0.68;;;10.20;99.90;;;;;;6084446;23;20026;-73
2022/09/18 00:14:33;;;;;;;1.20;0.70;;;10.20;99.90;;;;;;6083249;23;20843;-73
2022/09/18 00:17:01;;;;;;;1.63;0.80;;;10.20;99.90;;;;;;6083642;23;20037;-72
2022/09/18 00:19:34;;;;;;;1.10;0.70;;;10.20;99.90;;;;;;6082496;23;20042;-72
2022/09/18 00:22:01;;;;;;;0.90;0.60;;;10.20;99.90;;;;;;6084331;23;20101;-73
2022/09/18 00:24:27;;;;;;;0.80;0.57;;;10.20;99.90;;;;;;6083583;23;20034;-72
2022/09/18 00:26:54;;;;;;;0.85;0.55;;;10.20;99.90;;;;;;6083032;23;20061;-73
2022/09/18 00:29:21;;;;;;;0.65;0.50;;;10.20;99.90;;;;;;6084992;23;20022;-73
2022/09/18 00:31:48;;;;;;;0.98;0.70;;;10.10;99.90;;;;;;6083332;23;20572;-72
2022/09/18 00:34:14;;;;;;;1.38;0.75;;;10.10;99.90;;;;;;6084252;23;20034;-72
2022/09/18 00:36:41;;;;;;;0.68;0.50;;;10.10;99.90;;;;;;6082088;23;20023;-73
2022/09/18 00:39:09;;;;;;;0.65;0.40;;;10.10;99.90;;;;;;6082847;23;20026;-72
2022/09/18 00:41:37;;;;;;;1.00;0.60;;;10.10;99.90;;;;;;6082639;23;20018;-72
2022/09/18 00:44:27;;;;;;;0.98;0.50;;;10.10;99.90;;;;;;6084847;23;20346;-72
2022/09/18 00:46:53;;;;;;;0.68;0.50;;;10.00;99.90;;;;;;6078018;23;20029;-72
2022/09/18 00:49:22;;;;;;;1.20;0.63;;;10.00;99.90;;;;;;6081907;23;20502;-72
2022/09/18 00:51:50;;;;;;;0.95;0.63;;;10.00;99.90;;;;;;6082156;23;20053;-72
2022/09/18 00:54:26;;;;;;;0.80;0.68;;;9.90;99.90;;;;;;6058964;23;20026;-72
2022/09/18 00:56:56;;;;;;;0.82;0.52;;;9.90;99.90;;;;;;6082851;23;20426;-73
2022/09/18 00:59:27;;;;;;;0.95;0.57;;;9.90;99.90;;;;;;6083204;23;20041;-72
2022/09/18 01:01:54;;;;;;;1.45;0.77;;;9.80;99.90;;;;;;6085086;23;20050;-72
2022/09/18 01:04:21;;;;;;;2.03;0.80;;;9.80;99.90;;;;;;6086980;23;20056;-73
2022/09/18 01:07:11;;;;;;;0.88;0.50;;;9.70;99.90;;;;;;6087118;23;20096;-73
2022/09/18 01:10:09;;;;;;;0.75;0.50;;;9.70;99.90;;;;;;6112759;23;20042;-73
2022/09/18 01:12:55;;;;;;;0.35;0.35;;;9.70;99.90;;;;;;6087183;23;20018;-73
2022/09/18 01:15:48;;;;;;;1.55;0.50;;;9.60;99.90;;;;;;6088151;23;20170;-73
2022/09/18 01:18:35;;;;;;;0.90;0.60;;;9.60;99.90;;;;;;6112820;23;20034;-73
2022/09/18 01:21:19;;;;;;;0.45;0.40;;;9.60;99.90;;;;;;6086968;23;20108;-72
2022/09/18 01:23:51;;;;;;;0.60;0.40;;;9.60;99.90;;;;;;6112998;23;20032;-72
2022/09/18 01:26:56;;;;;;;0.57;0.40;;;9.50;99.90;;;;;;6087588;23;20021;-73
2022/09/18 01:29:47;;;;;;;0.30;0.22;;;9.60;99.90;;;;;;6113257;23;20036;-73
2022/09/18 01:32:25;;;;;;;0.95;0.60;;;9.60;99.90;;;;;;6065033;23;20144;-72
2022/09/18 01:35:27;;;;;;;0.50;0.50;;;9.60;99.90;;;;;;6088357;23;20032;-72
2022/09/18 01:38:32;;;;;;;0.75;0.55;;;9.60;99.90;;;;;;6061557;23;20097;-72
2022/09/18 01:41:11;;;;;;;0.47;0.30;;;9.60;99.90;;;;;;6089761;23;20485;-73
2022/09/18 01:43:37;;;;;;;0.35;0.30;;;9.70;99.90;;;;;;6065602;23;20038;-73
2022/09/18 01:46:13;;;;;;;0.75;0.40;;;9.70;99.90;;;;;;6089018;23;20022;-72
2022/09/18 01:48:42;;;;;;;0.32;0.30;;;9.70;99.90;;;;;;6088429;23;20021;-73
2022/09/18 01:51:21;;;;;;;0.88;0.50;;;9.70;99.90;;;;;;6089180;23;20025;-72
2022/09/18 01:54:12;;;;;;;0.40;0.30;;;9.70;99.90;;;;;;6091334;23;20063;-73
2022/09/18 01:56:51;;;;;;;0.55;0.40;;;9.70;99.90;;;;;;6088618;23;20133;-72
2022/09/18 01:59:24;;;;;;;0.30;0.30;;;9.70;99.90;;;;;;6091511;23;20108;-72
2022/09/18 02:01:50;;;;;;;0.75;0.40;;;9.70;99.90;;;;;;6064348;23;20045;-73
2022/09/18 02:04:26;;;;;;;0.50;0.40;;;9.70;99.90;;;;;;6065384;23;20109;-72
2022/09/18 02:07:10;;;;;;;0.73;0.40;;;9.70;99.90;;;;;;6089358;23;20018;-73
2022/09/18 02:09:38;;;;;;;0.30;0.30;;;9.70;99.90;;;;;;6066530;23;20115;-72
2022/09/18 02:12:05;;;;;;;1.48;0.60;;;9.70;99.90;;;;;;6114687;23;20043;-72
2022/09/18 02:14:34;;;;;;;0.73;0.30;;;9.70;99.90;;;;;;6089283;23;20025;-73
2022/09/18 02:17:04;;;;;;;0.77;0.52;;;9.70;99.90;;;;;;6088586;23;20034;-72
2022/09/18 02:19:41;;;;;;;0.30;0.30;;;9.70;99.90;;;;;;6088203;23;20025;-72
2022/09/18 02:22:13;;;;;;;0.90;0.40;;;9.70;99.90;;;;;;6089177;23;20038;-73
2022/09/18 02:24:40;;;;;;;0.80;0.50;;;9.70;99.90;;;;;;6089274;23;20029;-73
2022/09/18 02:27:07;;;;;;;0.52;0.40;;;9.60;99.90;;;;;;6089554;23;20101;-73
2022/09/18 02:29:34;;;;;;;0.43;0.43;;;9.60;99.90;;;;;;6089089;23;20030;-72
2022/09/18 02:32:01;;;;;;;0.55;0.30;;;9.60;99.90;;;;;;6088351;23;20022;-72
2022/09/18 02:34:28;;;;;;;0.28;0.25;;;9.60;99.90;;;;;;6088539;23;20097;-72
2022/09/18 02:37:22;;;;;;;0.80;0.50;;;9.60;99.90;;;;;;6114579;23;20022;-72
2022/09/18 02:40:10;;;;;;;0.63;0.50;;;9.60;99.90;;;;;;6091937;23;20444;-73
2022/09/18 02:43:09;;;;;;;0.60;0.43;;;9.60;99.90;;;;;;6114921;23;20128;-72
2022/09/18 02:45:42;;;;;;;0.57;0.57;;;9.60;99.90;;;;;;6090359;23;20018;-73
2022/09/18 02:48:11;;;;;;;0.80;0.35;;;9.50;99.90;;;;;;6089954;23;20072;-73
2022/09/18 02:50:55;;;;;;;0.30;0.30;;;9.50;99.90;;;;;;6088143;23;20022;-73
2022/09/18 02:53:53;;;;;;;0.35;0.30;;;9.50;99.90;;;;;;6088182;23;20029;-73
2022/09/18 02:56:55;;;;;;;0.38;0.30;;;9.40;99.90;;;;;;6083520;23;20029;-72
2022/09/18 02:59:36;;;;;;;0.30;0.30;;;9.40;99.90;;;;;;6050481;23;20022;-72
2022/09/18 03:02:02;;;;;;;0.40;0.30;;;9.40;99.90;;;;;;6087626;23;20330;-73
2022/09/18 03:04:29;;;;;;;1.02;0.50;;;9.40;99.90;;;;;;6087985;23;20369;-73
2022/09/18 03:06:56;;;;;;;0.75;0.50;;;9.30;99.90;;;;;;6114744;23;20022;-72
2022/09/18 03:09:23;;;;;;;0.57;0.50;;;9.30;99.90;;;;;;6116255;23;20026;-72
2022/09/18 03:11:50;;;;;;;0.65;0.30;;;9.30;99.90;;;;;;6091012;23;20054;-72
2022/09/18 03:14:17;;;;;;;0.93;0.40;;;9.30;99.90;;;;;;6090882;23;20033;-73
2022/09/18 03:16:43;;;;;;;1.30;0.50;;;9.20;99.90;;;;;;6115522;23;20022;-73
2022/09/18 03:19:13;;;;;;;0.55;0.40;;;9.20;99.90;;;;;;6116706;23;20021;-72
2022/09/18 03:21:40;;;;;;;1.17;0.60;;;9.20;99.90;;;;;;6115376;23;20641;-72
2022/09/18 03:24:06;;;;;;;1.02;0.50;;;9.30;99.90;;;;;;6116255;23;20026;-72
2022/09/18 03:26:33;;;;;;;0.95;0.50;;;9.30;99.90;;;;;;6115939;23;20022;-72
2022/09/18 03:29:00;;;;;;;0.45;0.45;;;9.20;99.90;;;;;;6090754;23;20434;-72
2022/09/18 03:31:28;;;;;;;0.57;0.40;;;9.20;99.90;;;;;;6089400;23;20454;-73
2022/09/18 03:33:55;;;;;;;0.40;0.40;;;9.20;99.90;;;;;;6090346;23;20021;-72
2022/09/18 03:36:21;;;;;;;0.80;0.40;;;9.20;99.90;;;;;;6115310;23;20108;-72
2022/09/18 03:38:48;;;;;;;1.08;0.57;;;9.20;99.90;;;;;;6090385;23;20024;-73
2022/09/18 03:41:14;;;;;;;0.57;0.40;;;9.20;99.90;;;;;;6116195;23;20045;-72
2022/09/18 03:43:41;;;;;;;1.45;0.47;;;9.20;99.90;;;;;;6091197;23;20347;-73
2022/09/18 03:46:08;;;;;;;1.52;0.70;;;9.20;99.90;;;;;;6090733;23;20036;-73
2022/09/18 03:48:35;;;;;;;0.60;0.40;;;9.20;99.90;;;;;;6115507;23;20018;-73
2022/09/18 03:51:01;;;;;;;1.42;0.63;;;9.20;99.90;;;;;;6116074;23;20037;-74
2022/09/18 03:53:28;;;;;;;1.17;0.68;;;9.20;99.90;;;;;;6065741;23;20412;-72
2022/09/18 03:55:55;;;;;;;2.22;0.70;;;9.20;99.90;;;;;;6116573;23;20462;-73
2022/09/18 03:58:21;;;;;;;0.90;0.60;;;9.20;99.90;;;;;;6089771;23;20436;-73
2022/09/18 04:00:48;;;;;;;0.57;0.50;;;9.20;99.90;;;;;;6089935;23;20312;-73
2022/09/18 04:03:15;;;;;;;0.95;0.60;;;9.20;99.90;;;;;;6115387;23;20101;-73
2022/09/18 04:05:42;;;;;;;0.95;0.65;;;9.30;99.90;;;;;;6115028;23;20026;-73
2022/09/18 04:08:08;;;;;;;0.40;0.40;;;9.30;99.90;;;;;;6089950;23;20052;-73
2022/09/18 04:10:35;;;;;;;0.63;0.38;;;9.30;99.90;;;;;;6089960;23;20033;-73
2022/09/18 04:13:02;;;;;;;1.90;0.55;;;9.40;99.90;;;;;;6116026;23;20037;-73
2022/09/18 04:15:28;;;;;;;1.00;0.60;;;9.40;99.90;;;;;;6089589;23;20048;-72
2022/09/18 04:17:55;;;;;;;0.90;0.50;;;9.40;99.90;;;;;;6115557;23;20307;-73
2022/09/18 04:20:22;;;;;;;1.33;0.50;;;9.40;99.90;;;;;;6115204;23;20226;-73
2022/09/18 04:22:49;;;;;;;0.77;0.50;;;9.40;99.90;;;;;;6066555;23;20315;-73
2022/09/18 04:25:15;;;;;;;0.68;0.55;;;9.50;99.90;;;;;;6089706;23;20022;-73
2022/09/18 04:27:42;;;;;;;2.05;0.88;;;9.50;99.90;;;;;;6090170;23;20383;-73
2022/09/18 04:30:09;;;;;;;0.73;0.60;;;9.50;99.90;;;;;;6115486;23;20032;-73
2022/09/18 04:32:36;;;;;;;1.15;0.75;;;9.50;99.90;;;;;;6115035;23;20032;-73
2022/09/18 04:35:04;;;;;;;0.90;0.50;;;9.50;99.90;;;;;;6115687;23;20018;-73
2022/09/18 04:37:31;;;;;;;1.30;0.50;;;9.40;99.90;;;;;;6115254;23;20029;-73
2022/09/18 04:39:58;;;;;;;1.15;0.50;;;9.40;99.90;;;;;;6115947;23;20582;-73
2022/09/18 04:42:24;;;;;;;0.75;0.60;;;9.40;99.90;;;;;;6090157;23;20458;-72
2022/09/18 04:44:51;;;;;;;0.73;0.55;;;9.40;99.90;;;;;;6116369;23;20041;-73
2022/09/18 04:47:18;;;;;;;2.25;0.95;;;9.40;99.90;;;;;;6065335;23;20018;-73
2022/09/18 04:49:44;;;;;;;1.08;0.50;;;9.30;99.90;;;;;;6066027;23;20033;-72
2022/09/18 04:52:11;;;;;;;1.13;0.60;;;9.30;99.90;;;;;;6115191;23;20026;-72
2022/09/18 04:54:38;;;;;;;1.83;0.70;;;9.30;99.90;;;;;;6116241;23;20401;-73
2022/09/18 04:57:05;;;;;;;0.90;0.70;;;9.20;99.90;;;;;;6115894;23;20106;-72
2022/09/18 04:59:31;;;;;;;1.63;0.70;;;9.20;99.90;;;;;;6116250;23;20044;-72
2022/09/18 05:01:58;;;;;;;1.00;0.60;;;9.20;99.90;;;;;;6114232;23;20033;-72
2022/09/18 05:04:25;;;;;;;0.68;0.52;;;9.20;99.90;;;;;;6111839;23;20363;-72
2022/09/18 05:06:52;;;;;;;1.10;0.85;;;9.20;99.90;;;;;;6086951;23;20030;-72
2022/09/18 05:09:18;;;;;;;1.10;0.70;;;9.10;99.90;;;;;;6087936;23;20022;-73
2022/09/18 05:11:46;;;;;;;3.58;0.75;;;9.10;99.90;;;;;;6088053;23;20053;-72
2022/09/18 05:14:13;;;;;;;1.95;0.90;;;9.10;99.90;;;;;;6087231;23;20045;-72
2022/09/18 05:16:40;;;;;;;0.95;0.57;;;9.10;99.90;;;;;;6112932;23;20052;-72
2022/09/18 05:19:07;;;;;;;0.63;0.50;;;9.00;99.90;;;;;;6062917;23;20124;-72
2022/09/18 05:21:33;;;;;;;0.88;0.52;;;9.00;99.90;;;;;;6086138;23;20036;-72
2022/09/18 05:24:00;;;;;;;1.02;0.50;;;8.90;99.90;;;;;;6113012;23;20616;-72
2022/09/18 05:26:29;;;;;;;0.85;0.60;;;8.90;99.90;;;;;;6113466;23;20060;-72
2022/09/18 05:28:56;;;;;;;0.60;0.50;;;8.90;99.90;;;;;;6087254;23;20022;-73
2022/09/18 05:31:22;;;;;;;1.00;0.50;;;8.90;99.90;;;;;;6111607;23;20380;-72
2022/09/18 05:33:49;;;;;;;0.90;0.52;;;8.80;99.90;;;;;;6113010;23;20093;-72
2022/09/18 05:36:16;;;;;;;0.98;0.70;;;8.80;99.90;;;;;;6112535;23;20026;-72
2022/09/18 05:38:44;;;;;;;0.75;0.73;;;8.80;99.90;;;;;;6086300;23;20075;-72
2022/09/18 05:41:11;;;;;;;0.65;0.50;;;8.80;99.90;;;;;;6113403;23;20073;-72
2022/09/18 05:43:37;;;;;;;1.45;0.60;;;8.80;99.90;;;;;;6086936;23;20018;-72
2022/09/18 05:46:04;;;;;;;0.93;0.60;;;8.80;99.90;;;;;;6115677;23;20025;-72
2022/09/18 05:48:31;;;;;;;0.60;0.57;;;8.80;99.90;;;;;;6116410;23;20032;-72
2022/09/18 05:50:57;;;;;;;0.80;0.50;;;8.70;99.90;;;;;;6090069;23;20033;-72
2022/09/18 05:53:24;;;;;;;0.52;0.40;;;8.70;99.90;;;;;;6090100;23;20032;-72
2022/09/18 05:55:51;;;;;;;1.25;0.60;;;8.70;99.90;;;;;;6065327;23;20339;-71
2022/09/18 05:58:18;;;;;;;1.10;0.55;;;8.80;99.90;;;;;;6066849;23;20060;-72
2022/09/18 06:00:45;;;;;;;1.08;0.50;;;8.80;99.90;;;;;;6066219;23;20026;-73
2022/09/18 06:03:13;;;;;;;0.80;0.52;;;8.70;99.90;;;;;;6089953;23;20097;-72
2022/09/18 06:05:40;;;;;;;0.77;0.52;;;8.70;99.90;;;;;;6088761;23;20070;-72
2022/09/18 06:08:08;;;;;;;1.23;0.50;;;8.80;99.90;;;;;;6090272;23;20029;-72
2022/09/18 06:10:36;;;;;;;1.10;0.65;;;8.80;99.90;;;;;;6090703;23;20025;-72
2022/09/18 06:13:04;;;;;;;1.48;0.70;;;8.80;99.90;;;;;;6090545;23;20050;-72
2022/09/18 06:15:32;;;;;;;1.35;0.85;;;8.90;99.90;;;;;;6089474;23;20025;-72
2022/09/18 06:17:58;;;;;;;0.60;0.43;;;8.90;99.90;;;;;;6089267;23;20026;-72
2022/09/18 06:20:25;;;;;;;0.63;0.55;;;8.90;99.90;;;;;;6089367;23;20022;-72
2022/09/18 06:22:52;;;;;;;0.57;0.40;;;9.00;99.90;;;;;;6111668;23;20480;-72
2022/09/18 06:25:20;;;;;;;1.17;0.60;;;9.10;99.90;;;;;;6085575;23;20133;-72
2022/09/18 06:27:52;;;;;;;1.42;0.75;;;9.10;99.90;;;;;;6083705;23;20510;-72
2022/09/18 06:30:19;;;;;;;1.17;0.77;;;9.10;99.90;;;;;;6084053;23;20095;-72
2022/09/18 06:32:45;;;;;;;0.98;0.70;;;9.20;99.90;;;;;;6106774;23;20410;-72
2022/09/18 06:35:12;;;;;;;0.73;0.57;;;9.20;99.90;;;;;;6108125;23;20259;-72
2022/09/18 06:37:39;;;;;;;1.23;0.82;;;9.20;99.90;;;;;;6107570;23;20629;-72
2022/09/18 06:40:06;;;;;;;1.70;0.70;;;9.30;99.90;;;;;;6108442;23;20361;-72
2022/09/18 06:42:33;;;;;;;1.73;0.93;;;9.30;99.90;;;;;;6082630;23;20327;-73
2022/09/18 06:44:59;;;;;;;1.30;0.90;;;9.30;99.90;;;;;;6082221;23;20026;-72
2022/09/18 06:47:26;;;;;;;1.02;0.52;;;9.40;99.90;;;;;;6106176;23;20479;-72
2022/09/18 06:49:53;;;;;;;0.70;0.43;;;9.50;99.90;;;;;;6107837;23;20057;-72
2022/09/18 06:52:19;;;;;;;0.70;0.55;;;9.50;99.90;;;;;;6059083;23;20378;-72
2022/09/18 06:54:46;;;;;;;0.95;0.50;;;9.60;99.90;;;;;;6082220;23;20097;-72
2022/09/18 06:57:13;;;;;;;1.02;0.60;;;9.70;99.90;;;;;;6108172;23;20033;-72
2022/09/18 06:59:39;;;;;;;1.23;0.80;;;9.70;99.90;;;;;;6082582;23;20073;-72
2022/09/18 07:02:13;;;;;;;1.50;0.63;;;9.70;99.90;;;;;;6105642;23;20037;-72
2022/09/18 07:04:45;;;;;;;2.03;0.85;;;9.80;99.90;;;;;;6083350;23;20022;-72
2022/09/18 07:07:12;;;;;;;1.05;0.60;;;9.90;99.90;;;;;;6104648;23;20132;-72
2022/09/18 07:09:39;;;;;;;1.10;0.50;;;9.90;99.90;;;;;;6080475;23;20057;-72
2022/09/18 07:12:05;;;;;;;1.05;0.68;;;10.00;99.90;;;;;;6108510;23;20049;-75
2022/09/18 07:14:32;;;;;;;0.93;0.68;;;10.10;99.90;;;;;;6082778;23;20037;-75
2022/09/18 07:16:59;;;;;;;1.02;0.75;;;10.20;99.90;;;;;;6082638;23;20102;-76
2022/09/18 07:19:26;;;;;;;0.47;0.40;;;10.20;99.90;;;;;;6083157;23;20339;-75
2022/09/18 07:21:53;;;;;;;0.55;0.55;;;10.30;99.90;;;;;;6080875;23;20350;-75
2022/09/18 07:24:21;;;;;;;2.55;0.77;;;10.40;99.90;;;;;;6056656;23;20026;-75
2022/09/18 07:26:48;;;;;;;2.03;0.95;;;10.40;99.90;;;;;;6082591;23;20562;-76
2022/09/18 07:29:14;;;;;;;1.65;0.93;;;10.50;99.90;;;;;;6083157;23;20879;-76
2022/09/18 07:31:41;;;;;;;0.77;0.60;;;10.50;99.90;;;;;;6058173;23;20038;-75
2022/09/18 07:34:10;;;;;;;0.60;0.47;;;10.60;99.90;;;;;;6057991;23;20556;-76
2022/09/18 07:36:36;;;;;;;1.25;0.57;;;10.60;99.90;;;;;;6081800;23;20478;-76
2022/09/18 07:39:04;;;;;;;0.55;0.45;;;10.70;99.90;;;;;;6058815;23;20022;-75
2022/09/18 07:41:30;;;;;;;1.67;0.60;;;10.70;99.90;;;;;;6106095;23;20047;-72
2022/09/18 07:43:57;;;;;;;1.23;0.68;;;10.80;99.90;;;;;;6108368;23;20612;-72
2022/09/18 07:46:25;;;;;;;1.13;0.50;;;10.80;99.90;;;;;;6106976;23;20030;-72
2022/09/18 07:48:52;;;;;;;0.38;0.35;;;10.90;99.90;;;;;;6107395;23;20917;-72
2022/09/18 07:51:19;;;;;;;1.38;0.82;;;10.90;99.90;;;;;;6108054;23;20030;-72
2022/09/18 07:53:51;;;;;;;1.55;0.75;;;11.00;99.90;;;;;;6084327;23;20026;-72
2022/09/18 07:56:18;;;;;;;0.75;0.43;;;11.00;99.90;;;;;;6083002;23;20129;-72
2022/09/18 07:58:45;;;;;;;1.17;0.63;;;11.10;99.90;;;;;;6083753;23;20033;-72
2022/09/18 08:01:11;;;;;;;2.20;0.90;;;11.20;99.90;;;;;;6109763;23;20054;-72
2022/09/18 08:03:38;;;;;;;0.68;0.50;;;11.20;99.90;;;;;;6077746;23;20022;-72
2022/09/18 08:06:07;;;;;;;0.60;0.50;;;11.30;99.90;;;;;;6080566;23;20471;-72
2022/09/18 08:08:35;;;;;;;0.90;0.60;;;11.30;99.90;;;;;;6053700;23;20319;-72
2022/09/18 08:11:02;;;;;;;0.45;0.40;;;11.40;99.90;;;;;;6080170;23;20053;-72
2022/09/18 08:13:29;;;;;;;0.50;0.38;;;11.50;99.90;;;;;;6076981;23;20434;-72
2022/09/18 08:15:56;;;;;;;1.10;0.75;;;11.60;99.90;;;;;;6078457;23;20409;-72
2022/09/18 08:18:23;;;;;;;1.63;0.68;;;11.70;99.90;;;;;;6080673;23;20022;-71
2022/09/18 08:20:50;;;;;;;1.17;0.80;;;11.80;99.90;;;;;;6079546;23;20049;-74
2022/09/18 08:23:17;;;;;;;0.60;0.45;;;11.90;99.90;;;;;;6080386;23;20412;-71
2022/09/18 08:25:43;;;;;;;0.70;0.60;;;12.00;99.90;;;;;;6080712;23;20026;-71
2022/09/18 08:28:10;;;;;;;1.00;0.55;;;12.10;99.90;;;;;;6079160;23;20030;-74
2022/09/18 08:30:37;;;;;;;1.15;0.45;;;12.20;99.90;;;;;;6080633;23;20022;-71
2022/09/18 08:33:05;;;;;;;0.75;0.65;;;12.30;99.90;;;;;;6079356;23;20030;-72
2022/09/18 08:35:32;;;;;;;0.40;0.38;;;12.40;99.90;;;;;;6078333;23;20033;-72
2022/09/18 08:37:59;;;;;;;0.85;0.50;;;12.60;99.90;;;;;;6079053;23;20022;-73
2022/09/18 08:40:41;;;;;;;1.65;0.77;;;12.60;99.90;;;;;;6078516;23;20034;-76
2022/09/18 08:43:49;;;;;;;1.58;1.08;;;12.70;99.90;;;;;;6080468;23;20490;-76
2022/09/18 08:46:29;;;;;;;1.38;0.65;;;12.80;99.90;;;;;;6071081;23;20053;-75
2022/09/18 08:49:25;;;;;;;0.70;0.43;;;12.90;99.90;;;;;;6078716;23;20033;-75
2022/09/18 08:52:02;;;;;;;2.22;0.70;;;13.00;99.90;;;;;;6077884;23;20101;-74
2022/09/18 08:54:28;;;;;;;1.38;0.70;;;13.10;99.90;;;;;;6080615;23;20054;-75
2022/09/18 08:56:55;;;;;;;1.05;0.40;;;13.10;99.90;;;;;;6079889;23;20491;-75
2022/09/18 08:59:46;;;;;;;0.82;0.38;;;13.10;99.90;;;;;;6055343;23;20042;-75
2022/09/18 09:02:31;;;;;;;1.55;0.57;;;13.20;99.90;;;;;;6077376;23;20034;-76
2022/09/18 09:05:00;;;;;;;1.77;0.70;;;13.20;99.90;;;;;;6078501;23;20436;-75
2022/09/18 09:07:49;;;;;;;1.00;0.60;;;13.30;99.90;;;;;;6078177;23;20113;-75
2022/09/18 09:10:20;;;;;;;1.50;0.77;;;13.30;99.90;;;;;;6078662;23;20022;-75
2022/09/18 09:12:56;;;;;;;1.92;0.77;;;13.40;99.90;;;;;;6078732;23;20030;-74
2022/09/18 09:15:44;;;;;;;1.13;0.65;;;13.40;99.90;;;;;;6080242;23;20411;-77
2022/09/18 09:18:10;;;;;;;1.23;0.50;;;13.50;99.90;;;;;;6076547;23;20053;-73
2022/09/18 09:20:49;;;;;;;2.85;0.75;;;13.50;99.90;;;;;;6077898;23;20162;-71
2022/09/18 09:23:35;;;;;;;0.80;0.40;;;13.50;99.90;;;;;;6077972;23;20050;-72
2022/09/18 09:26:06;;;;;;;1.10;0.60;;;13.60;99.90;;;;;;6079867;23;20065;-72
2022/09/18 09:28:40;;;;;;;2.03;0.82;;;13.70;99.90;;;;;;6078552;23;20029;-72
2022/09/18 09:31:07;;;;;;;1.92;0.70;;;13.80;99.90;;;;;;6077477;23;20501;-72
2022/09/18 09:33:36;;;;;;;0.98;0.82;;;13.80;99.90;;;;;;6076323;23;20100;-72
2022/09/18 09:36:07;;;;;;;0.52;0.40;;;13.80;99.90;;;;;;6076348;23;20033;-72
2022/09/18 09:38:51;;;;;;;0.38;0.30;;;14.00;99.90;;;;;;6076785;23;20026;-72
2022/09/18 09:41:34;;;;;;;1.98;0.80;;;14.10;99.90;;;;;;6079589;23;20030;-71
2022/09/18 09:44:14;;;;;;;0.95;0.50;;;14.20;99.90;;;;;;6076996;23;20101;-72
2022/09/18 09:46:50;;;;;;;1.50;0.50;;;14.30;99.90;;;;;;6077340;23;20181;-71
2022/09/18 09:49:27;;;;;;;2.15;0.50;;;14.40;99.90;;;;;;6053738;23;20034;-72
2022/09/18 09:52:13;;;;;;;1.75;0.63;;;14.40;99.90;;;;;;6076083;23;20033;-73
2022/09/18 09:54:40;;;;;;;1.10;0.65;;;14.40;99.90;;;;;;6078707;23;20026;-72
2022/09/18 09:57:25;;;;;;;0.30;0.30;;;14.50;99.90;;;;;;6079158;23;20029;-72
2022/09/18 10:00:03;;;;;;;0.93;0.50;;;14.60;99.90;;;;;;6077449;23;20033;-72
2022/09/18 10:02:41;;;;;;;1.83;0.50;;;14.80;99.90;;;;;;6089663;23;20022;-73
2022/09/18 10:05:25;;;;;;;1.08;0.60;;;14.90;99.90;;;;;;6108619;23;20021;-71
2022/09/18 10:08:02;;;;;;;2.03;0.50;;;15.10;99.90;;;;;;6081243;23;20413;-73
2022/09/18 10:10:40;;;;;;;0.40;0.40;;;15.10;99.90;;;;;;6082793;23;20462;-71
2022/09/18 10:13:21;;;;;;;1.13;0.57;;;15.20;99.90;;;;;;6083570;23;20032;-74
2022/09/18 10:15:49;;;;;;;1.38;0.43;;;15.30;99.90;;;;;;6108616;23;20044;-71
2022/09/18 10:18:28;;;;;;;1.10;0.50;;;15.40;99.90;;;;;;6083128;23;20025;-72
2022/09/18 10:20:58;;;;;;;1.20;0.68;;;15.50;99.90;;;;;;6107889;23;20244;-71
2022/09/18 10:23:39;;;;;;;1.52;0.40;;;15.60;99.90;;;;;;6081918;23;20414;-74
2022/09/18 10:26:06;;;;;;;2.72;0.70;;;15.60;99.90;;;;;;6080717;23;20418;-71
2022/09/18 10:28:33;;;;;;;1.38;0.77;;;15.70;99.90;;;;;;6081030;23;20036;-71
2022/09/18 10:31:10;;;;;;;0.40;0.40;;;15.80;99.90;;;;;;6078435;23;20097;-71
2022/09/18 10:33:39;;;;;;;1.30;0.60;;;15.80;99.90;;;;;;6077416;23;20287;-71
2022/09/18 10:36:20;;;;;;;1.13;0.60;;;15.70;99.90;;;;;;6079577;23;20029;-72
2022/09/18 10:38:47;;;;;;;0.90;0.70;;;15.70;99.90;;;;;;6079978;23;20026;-71
2022/09/18 10:41:36;;;;;;;0.43;0.40;;;15.80;99.90;;;;;;6080547;23;20028;-72
2022/09/18 10:44:10;;;;;;;0.80;0.60;;;16.00;99.90;;;;;;6078937;23;20106;-72
2022/09/18 10:46:39;;;;;;;0.80;0.50;;;16.30;99.90;;;;;;6080035;23;20030;-71
2022/09/18 10:49:35;;;;;;;1.23;0.50;;;16.30;99.90;;;;;;6079247;23;20064;-71
2022/09/18 10:52:24;;;;;;;0.70;0.45;;;16.30;99.90;;;;;;6105862;23;20080;-71
2022/09/18 10:55:04;;;;;;;0.38;0.30;;;16.40;99.90;;;;;;6106275;23;20030;-71
2022/09/18 10:57:57;;;;;;;0.60;0.30;;;16.60;99.90;;;;;;6080397;23;20053;-72
2022/09/18 11:00:24;;;;;;;0.70;0.45;;;16.80;99.90;;;;;;6036577;23;20037;-72
2022/09/18 11:02:58;;;;;;;0.70;0.52;;;16.80;99.90;;;;;;6105030;23;20049;-72
2022/09/18 11:05:30;;;;;;;2.45;0.80;;;16.90;99.90;;;;;;6080680;23;20096;-72
2022/09/18 11:07:59;;;;;;;0.82;0.35;;;17.00;99.90;;;;;;6079741;23;20097;-72
2022/09/18 11:10:27;;;;;;;1.55;0.32;;;17.10;99.90;;;;;;6080500;23;20022;-71
2022/09/18 11:12:56;;;;;;;1.08;0.60;;;17.20;99.90;;;;;;6079584;23;20033;-71
2022/09/18 11:15:28;;;;;;;0.55;0.45;;;17.10;99.90;;;;;;6080865;23;20122;-72
2022/09/18 11:17:56;;;;;;;1.48;0.50;;;17.30;99.90;;;;;;6079611;23;20604;-73
2022/09/18 11:20:27;;;;;;;1.17;0.63;;;17.50;99.90;;;;;;6080213;23;20032;-73
2022/09/18 11:23:13;;;;;;;0.50;0.35;;;17.60;99.90;;;;;;6079701;23;20029;-74
2022/09/18 11:25:40;;;;;;;0.85;0.60;;;17.50;99.90;;;;;;6084352;23;20026;-73
2022/09/18 11:28:40;;;;;;;1.10;0.47;;;17.40;99.90;;;;;;6080811;23;20470;-71
2022/09/18 11:31:15;;;;;;;0.32;0.30;;;17.40;99.60;;;;;;6044189;23;20476;-73
2022/09/18 11:33:43;;;;;;;1.95;0.60;;;17.50;99.80;;;;;;6107256;23;20120;-71
2022/09/18 11:36:11;;;;;;;0.75;0.50;;;17.50;99.80;;;;;;6082105;23;20478;-72
2022/09/18 11:38:39;;;;;;;0.98;0.50;;;17.60;99.60;;;;;;6107559;23;20076;-72
2022/09/18 11:41:06;;;;;;;2.13;0.45;;;17.60;99.90;;;;;;6082573;23;20096;-73
2022/09/18 11:43:34;;;;;;;1.92;0.40;;;17.80;99.70;;;;;;6082316;23;20025;-73
2022/09/18 11:46:26;;;;;;;1.17;0.50;;;17.90;99.00;;;;;;6081521;23;20225;-72
2022/09/18 11:48:57;;;;;;;0.43;0.43;;;18.00;98.60;;;;;;6081891;23;20081;-72
2022/09/18 11:51:46;;;;;;;1.42;0.60;;;18.20;98.90;;;;;;6106493;23;20028;-73
2022/09/18 11:54:21;;;;;;;;;;;18.50;98.40;;;;;;6082489;23;20032;-72
2022/09/18 11:56:50;;;;;;;0.73;0.40;;;18.70;97.30;;;;;;6107717;23;20079;-73
2022/09/18 11:59:33;;;;;;;0.52;0.40;;;18.60;97.60;;;;;;6081878;23;20025;-73
2022/09/18 12:02:04;;;;;;;0.70;0.40;;;18.80;98.10;;;;;;6080905;23;20837;-72
2022/09/18 12:04:52;;;;;;;0.70;0.40;;;18.80;97.20;;;;;;6081890;23;20073;-73
2022/09/18 12:07:31;;;;;;;0.55;0.43;;;18.80;97.20;;;;;;6080615;23;20026;-72
2022/09/18 12:10:25;;;;;;;1.48;0.50;;;18.90;96.80;;;;;;6084580;23;20055;-73
2022/09/18 12:13:14;;;;;;;0.43;0.35;;;19.20;96.90;;;;;;6107752;23;20028;-72
2022/09/18 12:15:43;;;;;;;0.73;0.32;;;19.20;96.20;;;;;;6081313;23;20498;-72
2022/09/18 12:18:19;;;;;;;0.65;0.40;;;19.20;96.00;;;;;;6081113;23;20269;-74
2022/09/18 12:21:05;;;;;;;0.45;0.30;;;19.00;96.30;;;;;;6082608;23;20025;-72
2022/09/18 12:23:32;;;;;;;0.30;0.30;;;18.80;96.20;;;;;;6080592;23;20028;-72
2022/09/18 12:26:20;;;;;;;0.35;0.30;;;18.70;96.80;;;;;;6081855;23;20033;-72
2022/09/18 12:29:17;;;;;;;0.65;0.40;;;18.70;96.30;;;;;;6082197;23;20026;-72
2022/09/18 12:32:06;;;;;;;0.40;0.30;;;19.30;96.50;;;;;;6080876;23;20343;-72
2022/09/18 12:34:35;;;;;;;1.48;0.50;;;19.40;95.70;;;;;;6107542;23;20030;-72
2022/09/18 12:37:40;;;;;;;0.55;0.43;;;18.90;95.50;;;;;;6080741;23;20112;-71
2022/09/18 12:40:15;;;;;;;0.55;0.50;;;18.70;95.90;;;;;;6106974;23;20036;-71
2022/09/18 12:42:53;;;;;;;0.75;0.50;;;18.60;96.50;;;;;;6081669;23;20306;-72
2022/09/18 12:46:08;;;;;;;0.45;0.40;;;18.60;96.30;;;;;;6081459;23;20461;-71
2022/09/18 12:48:34;;;;;;;0.75;0.50;;;18.70;96.00;;;;;;6057221;23;20081;-72
2022/09/18 12:51:24;;;;;;;1.15;0.50;;;19.10;96.00;;;;;;6106251;23;20064;-73
2022/09/18 12:54:03;;;;;;;0.50;0.50;;;19.10;96.10;;;;;;6106681;23;20246;-72
2022/09/18 12:57:05;;;;;;;0.55;0.38;;;19.10;95.90;;;;;;6107347;23;20021;-72
2022/09/18 12:59:40;;;;;;;0.40;0.40;;;18.90;95.90;;;;;;6107235;23;20048;-72
2022/09/18 13:02:33;;;;;;;0.55;0.40;;;18.80;96.30;;;;;;6106145;23;20526;-72
2022/09/18 13:05:15;;;;;;;1.00;0.47;;;18.70;96.10;;;;;;6082764;23;20451;-72
2022/09/18 13:07:44;;;;;;;1.00;0.52;;;18.50;96.30;;;;;;6079691;23;20105;-72
2022/09/18 13:10:17;;;;;;;0.82;0.43;;;18.60;96.30;;;;;;6081474;23;20024;-72
2022/09/18 13:12:52;;;;;;;0.55;0.50;;;18.50;96.40;;;;;;6082627;23;20038;-72
2022/09/18 13:15:23;;;;;;;0.73;0.50;;;18.60;96.50;;;;;;6107803;23;20046;-72
2022/09/18 13:17:53;;;;;;;0.82;0.55;;;18.80;96.20;;;;;;6080653;23;20467;-72
2022/09/18 13:20:29;;;;;;;0.98;0.63;;;18.90;96.20;;;;;;6081127;23;20486;-72
2022/09/18 13:22:56;;;;;;;0.98;0.50;;;18.80;96.60;;;;;;6082251;23;20133;-72